TSO564 UUDD-URSS
Flight info
| Callsign | TSO564 |
|---|---|
| Flight time | 1h 59m |
| Altitude | 37000 |
| Route | LINRU4N LINRU L4 EKTUT N72 UMSIS N166 ADNET W79 BINOL BINOL1K |
| Aircraft | B744/H-SDE3FGHIM1M2RWXY/LB1 |
Departure
| Time | 2026-05-05 13:18 |
|---|---|
| Airport | Domodedovo International Airport (UUDD) |
Arrival
| Time | 2026-05-05 15:17 |
|---|---|
| Airport | Sochi International Airport (URSS) |
| Time | Latitude | Longitude | Altitude | Speed | Heading |
|---|---|---|---|---|---|
| 2026-05-05 12:31 | 55.41391 | 37.90478 | 599 ft | 0 kts | 248° |
| 2026-05-05 12:53 | 55.41397 | 37.90500 | 599 ft | 2 kts | 238° |
| 2026-05-05 12:54 | 55.41417 | 37.90539 | 599 ft | 2 kts | 217° |
| 2026-05-05 12:54 | 55.41430 | 37.90553 | 599 ft | 2 kts | 206° |
| 2026-05-05 12:54 | 55.41444 | 37.90564 | 599 ft | 2 kts | 198° |
| 2026-05-05 12:55 | 55.41459 | 37.90568 | 599 ft | 2 kts | 177° |
| 2026-05-05 12:55 | 55.41473 | 37.90564 | 599 ft | 2 kts | 160° |
| 2026-05-05 12:55 | 55.41487 | 37.90552 | 599 ft | 2 kts | 142° |
| 2026-05-05 12:55 | 55.41497 | 37.90533 | 599 ft | 2 kts | 124° |
| 2026-05-05 12:56 | 55.41505 | 37.90514 | 599 ft | 0 kts | 123° |
| 2026-05-05 12:56 | 55.41505 | 37.90511 | 599 ft | 0 kts | 124° |
| 2026-05-05 13:05 | 55.41505 | 37.90512 | 599 ft | 0 kts | 124° |
| 2026-05-05 13:07 | 55.41504 | 37.90516 | 599 ft | 1 kts | 124° |
| 2026-05-05 13:07 | 55.41415 | 37.90725 | 599 ft | 23 kts | 127° |
| 2026-05-05 13:08 | 55.41333 | 37.90870 | 599 ft | 14 kts | 162° |
| 2026-05-05 13:08 | 55.41249 | 37.90831 | 599 ft | 11 kts | 225° |
| 2026-05-05 13:08 | 55.41207 | 37.90734 | 599 ft | 8 kts | 236° |
| 2026-05-05 13:08 | 55.41178 | 37.90659 | 599 ft | 7 kts | 235° |
| 2026-05-05 13:09 | 55.41140 | 37.90565 | 599 ft | 11 kts | 235° |
| 2026-05-05 13:09 | 55.41076 | 37.90429 | 599 ft | 17 kts | 227° |
| 2026-05-05 13:09 | 55.41031 | 37.90211 | 599 ft | 21 kts | 253° |
| 2026-05-05 13:09 | 55.40940 | 37.89959 | 599 ft | 27 kts | 237° |
| 2026-05-05 13:10 | 55.40828 | 37.89671 | 599 ft | 27 kts | 235° |
| 2026-05-05 13:10 | 55.40726 | 37.89494 | 599 ft | 17 kts | 234° |
| 2026-05-05 13:10 | 55.40646 | 37.89348 | 599 ft | 15 kts | 180° |
| 2026-05-05 13:10 | 55.40554 | 37.89440 | 599 ft | 15 kts | 143° |
| 2026-05-05 13:11 | 55.40460 | 37.89553 | 599 ft | 17 kts | 145° |
| 2026-05-05 13:11 | 55.40355 | 37.89679 | 599 ft | 19 kts | 145° |
| 2026-05-05 13:11 | 55.40237 | 37.89822 | 599 ft | 22 kts | 146° |
| 2026-05-05 13:11 | 55.40100 | 37.89987 | 599 ft | 25 kts | 145° |
| 2026-05-05 13:12 | 55.39947 | 37.90169 | 599 ft | 28 kts | 146° |
| 2026-05-05 13:12 | 55.39776 | 37.90377 | 599 ft | 31 kts | 146° |
| 2026-05-05 13:12 | 55.39638 | 37.90533 | 599 ft | 13 kts | 168° |
| 2026-05-05 13:12 | 55.39593 | 37.90502 | 599 ft | 0 kts | 230° |
| 2026-05-05 13:13 | 55.39593 | 37.90501 | 599 ft | 0 kts | 230° |
| 2026-05-05 13:14 | 55.39579 | 37.90470 | 599 ft | 7 kts | 233° |
| 2026-05-05 13:14 | 55.39536 | 37.90339 | 599 ft | 14 kts | 277° |
| 2026-05-05 13:14 | 55.39634 | 37.90183 | 599 ft | 12 kts | 326° |
| 2026-05-05 13:15 | 55.39641 | 37.90174 | 599 ft | 0 kts | 325° |
| 2026-05-05 13:17 | 55.39643 | 37.90173 | 599 ft | 2 kts | 325° |
| 2026-05-05 13:17 | 55.39809 | 37.89972 | 599 ft | 64 kts | 325° |
| 2026-05-05 13:17 | 55.40413 | 37.89243 | 600 ft | 143 kts | 324° |
| 2026-05-05 13:18 | 55.41412 | 37.88077 | 740 ft | 190 kts | 324° |
| 2026-05-05 13:18 | 55.42486 | 37.86613 | 1313 ft | 196 kts | 311° |
| 2026-05-05 13:18 | 55.43459 | 37.84760 | 1626 ft | 212 kts | 307° |
| 2026-05-05 13:18 | 55.44441 | 37.82750 | 2125 ft | 220 kts | 308° |
| 2026-05-05 13:19 | 55.45427 | 37.80696 | 2692 ft | 219 kts | 306° |
| 2026-05-05 13:19 | 55.46303 | 37.78471 | 3088 ft | 219 kts | 292° |
| 2026-05-05 13:19 | 55.46730 | 37.75889 | 3488 ft | 218 kts | 274° |
| 2026-05-05 13:19 | 55.46647 | 37.73248 | 3880 ft | 219 kts | 256° |
| 2026-05-05 13:20 | 55.46058 | 37.70728 | 4238 ft | 224 kts | 239° |
| 2026-05-05 13:20 | 55.45011 | 37.68623 | 4549 ft | 233 kts | 221° |
| 2026-05-05 13:20 | 55.43582 | 37.67132 | 4830 ft | 243 kts | 205° |
| 2026-05-05 13:20 | 55.42311 | 37.66514 | 5002 ft | 253 kts | 192° |
| 2026-05-05 13:21 | 55.40506 | 37.66474 | 5256 ft | 264 kts | 176° |
| 2026-05-05 13:21 | 55.38667 | 37.67364 | 5496 ft | 275 kts | 160° |
| 2026-05-05 13:21 | 55.37003 | 37.69112 | 5756 ft | 284 kts | 144° |
| 2026-05-05 13:21 | 55.35612 | 37.71625 | 6074 ft | 290 kts | 131° |
| 2026-05-05 13:22 | 55.34404 | 37.74505 | 6431 ft | 291 kts | 130° |
| 2026-05-05 13:22 | 55.33105 | 37.77211 | 6772 ft | 289 kts | 141° |
| 2026-05-05 13:22 | 55.31495 | 37.79310 | 7095 ft | 285 kts | 154° |
| 2026-05-05 13:22 | 55.29742 | 37.81059 | 7426 ft | 287 kts | 154° |
| 2026-05-05 13:23 | 55.28013 | 37.82871 | 7733 ft | 289 kts | 154° |
| 2026-05-05 13:23 | 55.26178 | 37.84278 | 8016 ft | 285 kts | 168° |
| 2026-05-05 13:23 | 55.24232 | 37.85102 | 8312 ft | 286 kts | 171° |
| 2026-05-05 13:23 | 55.22298 | 37.85934 | 8699 ft | 288 kts | 170° |
| 2026-05-05 13:24 | 55.20337 | 37.86783 | 9017 ft | 290 kts | 170° |
| 2026-05-05 13:24 | 55.18337 | 37.87653 | 9333 ft | 293 kts | 170° |
| 2026-05-05 13:24 | 55.16345 | 37.88528 | 9673 ft | 294 kts | 170° |
| 2026-05-05 13:24 | 55.14341 | 37.89405 | 10048 ft | 294 kts | 170° |
| 2026-05-05 13:25 | 55.12360 | 37.90270 | 10388 ft | 295 kts | 170° |
| 2026-05-05 13:25 | 55.10320 | 37.91021 | 10673 ft | 296 kts | 179° |
| 2026-05-05 13:25 | 55.08268 | 37.90982 | 10897 ft | 295 kts | 192° |
| 2026-05-05 13:25 | 55.06192 | 37.90401 | 11074 ft | 302 kts | 193° |
| 2026-05-05 13:26 | 55.04064 | 37.89854 | 11128 ft | 314 kts | 192° |
| 2026-05-05 13:26 | 55.01849 | 37.89296 | 11272 ft | 321 kts | 192° |
| 2026-05-05 13:26 | 54.99587 | 37.89080 | 11588 ft | 326 kts | 180° |
| 2026-05-05 13:26 | 54.97343 | 37.89750 | 11883 ft | 332 kts | 167° |
| 2026-05-05 13:27 | 54.95129 | 37.91074 | 12184 ft | 334 kts | 164° |
| 2026-05-05 13:27 | 54.92918 | 37.92392 | 12455 ft | 335 kts | 165° |
| 2026-05-05 13:27 | 54.90688 | 37.93699 | 12744 ft | 337 kts | 165° |
| 2026-05-05 13:27 | 54.88409 | 37.95047 | 13026 ft | 339 kts | 165° |
| 2026-05-05 13:28 | 54.86152 | 37.96377 | 13327 ft | 340 kts | 165° |
| 2026-05-05 13:28 | 54.83901 | 37.97721 | 13625 ft | 342 kts | 165° |
| 2026-05-05 13:28 | 54.81618 | 37.98934 | 13919 ft | 342 kts | 167° |
| 2026-05-05 13:28 | 54.79314 | 38.00116 | 14229 ft | 344 kts | 166° |
| 2026-05-05 13:29 | 54.76987 | 38.01336 | 14556 ft | 346 kts | 167° |
| 2026-05-05 13:29 | 54.74671 | 38.02549 | 14894 ft | 347 kts | 166° |
| 2026-05-05 13:29 | 54.72352 | 38.03765 | 15231 ft | 347 kts | 166° |
| 2026-05-05 13:29 | 54.70003 | 38.04998 | 15562 ft | 349 kts | 166° |
| 2026-05-05 13:30 | 54.67655 | 38.06250 | 15882 ft | 350 kts | 166° |
| 2026-05-05 13:30 | 54.65325 | 38.07491 | 16208 ft | 351 kts | 166° |
| 2026-05-05 13:30 | 54.62988 | 38.08736 | 16491 ft | 350 kts | 165° |
| 2026-05-05 13:30 | 54.60650 | 38.09988 | 16643 ft | 348 kts | 166° |
| 2026-05-05 13:31 | 54.58268 | 38.11246 | 16763 ft | 358 kts | 166° |
| 2026-05-05 13:31 | 54.55899 | 38.12511 | 17135 ft | 358 kts | 166° |
| 2026-05-05 13:31 | 54.53493 | 38.13790 | 17424 ft | 360 kts | 166° |
| 2026-05-05 13:31 | 54.51051 | 38.15099 | 17716 ft | 362 kts | 165° |
| 2026-05-05 13:32 | 54.48631 | 38.16382 | 18012 ft | 363 kts | 166° |
| 2026-05-05 13:32 | 54.46180 | 38.17674 | 18321 ft | 364 kts | 165° |
| 2026-05-05 13:32 | 54.43750 | 38.18957 | 18613 ft | 365 kts | 165° |
| 2026-05-05 13:32 | 54.41295 | 38.20265 | 18905 ft | 367 kts | 165° |
| 2026-05-05 13:33 | 54.38838 | 38.21571 | 19207 ft | 368 kts | 165° |
| 2026-05-05 13:33 | 54.36331 | 38.22904 | 19495 ft | 370 kts | 165° |
| 2026-05-05 13:33 | 54.33861 | 38.24202 | 19776 ft | 371 kts | 167° |
| 2026-05-05 13:33 | 54.31349 | 38.25263 | 20056 ft | 371 kts | 169° |
| 2026-05-05 13:34 | 54.28805 | 38.26356 | 20328 ft | 373 kts | 167° |
| 2026-05-05 13:34 | 54.26244 | 38.27465 | 20596 ft | 375 kts | 168° |
| 2026-05-05 13:34 | 54.23693 | 38.28556 | 20852 ft | 377 kts | 168° |
| 2026-05-05 13:34 | 54.21106 | 38.29684 | 21117 ft | 379 kts | 168° |
| 2026-05-05 13:35 | 54.18508 | 38.30793 | 21378 ft | 380 kts | 168° |
| 2026-05-05 13:35 | 54.15937 | 38.31906 | 21644 ft | 382 kts | 167° |
| 2026-05-05 13:35 | 54.13314 | 38.33031 | 21920 ft | 383 kts | 167° |
| 2026-05-05 13:35 | 54.10712 | 38.34149 | 22203 ft | 384 kts | 167° |
| 2026-05-05 13:36 | 54.08084 | 38.35281 | 22462 ft | 385 kts | 167° |
| 2026-05-05 13:36 | 54.05448 | 38.36415 | 22716 ft | 387 kts | 167° |
| 2026-05-05 13:36 | 54.02844 | 38.37530 | 22966 ft | 388 kts | 167° |
| 2026-05-05 13:36 | 54.00171 | 38.38674 | 23225 ft | 390 kts | 167° |
| 2026-05-05 13:37 | 53.97521 | 38.39801 | 23482 ft | 391 kts | 167° |
| 2026-05-05 13:37 | 53.94866 | 38.40930 | 23742 ft | 393 kts | 167° |
| 2026-05-05 13:37 | 53.92164 | 38.42083 | 24010 ft | 394 kts | 167° |
| 2026-05-05 13:37 | 53.89469 | 38.43232 | 24276 ft | 396 kts | 167° |
| 2026-05-05 13:38 | 53.86723 | 38.44394 | 24547 ft | 397 kts | 167° |
| 2026-05-05 13:38 | 53.84022 | 38.45542 | 24815 ft | 398 kts | 167° |
| 2026-05-05 13:38 | 53.81302 | 38.46697 | 25088 ft | 399 kts | 167° |
| 2026-05-05 13:38 | 53.78567 | 38.47848 | 25352 ft | 398 kts | 168° |
| 2026-05-05 13:39 | 53.75857 | 38.48966 | 25479 ft | 401 kts | 166° |
| 2026-05-05 13:39 | 53.73100 | 38.50158 | 25621 ft | 404 kts | 169° |
| 2026-05-05 13:39 | 53.70335 | 38.50999 | 25805 ft | 406 kts | 171° |
| 2026-05-05 13:39 | 53.67526 | 38.51895 | 26036 ft | 407 kts | 169° |
| 2026-05-05 13:40 | 53.64703 | 38.52818 | 26242 ft | 409 kts | 170° |
| 2026-05-05 13:40 | 53.61887 | 38.53741 | 26460 ft | 410 kts | 169° |
| 2026-05-05 13:40 | 53.59060 | 38.54670 | 26674 ft | 412 kts | 169° |
| 2026-05-05 13:40 | 53.56215 | 38.55602 | 26891 ft | 413 kts | 169° |
| 2026-05-05 13:41 | 53.53399 | 38.56524 | 27104 ft | 414 kts | 169° |
| 2026-05-05 13:41 | 53.50538 | 38.57458 | 27322 ft | 415 kts | 169° |
| 2026-05-05 13:41 | 53.47647 | 38.58403 | 27543 ft | 417 kts | 169° |
| 2026-05-05 13:41 | 53.44770 | 38.59344 | 27759 ft | 418 kts | 169° |
| 2026-05-05 13:42 | 53.41905 | 38.60283 | 27965 ft | 419 kts | 169° |
| 2026-05-05 13:42 | 53.39032 | 38.61219 | 28234 ft | 419 kts | 169° |
| 2026-05-05 13:42 | 53.36155 | 38.62165 | 28502 ft | 419 kts | 169° |
| 2026-05-05 13:42 | 53.33247 | 38.63099 | 28780 ft | 419 kts | 169° |
| 2026-05-05 13:43 | 53.30363 | 38.64034 | 29056 ft | 420 kts | 168° |
| 2026-05-05 13:43 | 53.27460 | 38.64977 | 29338 ft | 420 kts | 168° |
| 2026-05-05 13:43 | 53.24890 | 38.65814 | 29574 ft | 421 kts | 169° |
| 2026-05-05 13:43 | 53.21995 | 38.66759 | 29849 ft | 422 kts | 169° |
| 2026-05-05 13:44 | 53.19086 | 38.67699 | 30137 ft | 422 kts | 169° |
| 2026-05-05 13:44 | 53.16187 | 38.68631 | 30405 ft | 423 kts | 169° |
| 2026-05-05 13:44 | 53.13271 | 38.69572 | 30626 ft | 426 kts | 169° |
| 2026-05-05 13:44 | 53.10307 | 38.70521 | 30773 ft | 430 kts | 169° |
| 2026-05-05 13:45 | 53.04313 | 38.72453 | 30964 ft | 439 kts | 169° |
| 2026-05-05 13:45 | 53.01295 | 38.73425 | 31138 ft | 441 kts | 168° |
| 2026-05-05 13:45 | 52.98245 | 38.74400 | 31367 ft | 442 kts | 169° |
| 2026-05-05 13:46 | 52.95227 | 38.75368 | 31596 ft | 442 kts | 168° |
| 2026-05-05 13:46 | 52.92186 | 38.76336 | 31797 ft | 444 kts | 168° |
| 2026-05-05 13:46 | 52.89082 | 38.77324 | 31991 ft | 445 kts | 168° |
| 2026-05-05 13:46 | 52.86025 | 38.78296 | 32197 ft | 446 kts | 168° |
| 2026-05-05 13:47 | 52.82951 | 38.79273 | 32409 ft | 447 kts | 168° |
| 2026-05-05 13:47 | 52.79973 | 38.80217 | 32601 ft | 448 kts | 168° |
| 2026-05-05 13:47 | 52.77164 | 38.81106 | 32777 ft | 449 kts | 168° |
| 2026-05-05 13:47 | 52.74061 | 38.82093 | 32974 ft | 450 kts | 168° |
| 2026-05-05 13:48 | 52.71019 | 38.83056 | 33173 ft | 451 kts | 168° |
| 2026-05-05 13:48 | 52.67909 | 38.84039 | 33388 ft | 451 kts | 168° |
| 2026-05-05 13:48 | 52.64765 | 38.85028 | 33605 ft | 452 kts | 169° |
| 2026-05-05 13:48 | 52.61667 | 38.86001 | 33810 ft | 452 kts | 169° |
| 2026-05-05 13:49 | 52.58543 | 38.86982 | 34008 ft | 453 kts | 168° |
| 2026-05-05 13:49 | 52.55422 | 38.87958 | 34190 ft | 454 kts | 169° |
| 2026-05-05 13:49 | 52.53272 | 38.88632 | 34309 ft | 455 kts | 169° |
| 2026-05-05 13:49 | 52.50130 | 38.89613 | 34457 ft | 457 kts | 169° |
| 2026-05-05 13:50 | 52.46968 | 38.90596 | 34592 ft | 459 kts | 168° |
| 2026-05-05 13:50 | 52.43777 | 38.91591 | 34741 ft | 461 kts | 168° |
| 2026-05-05 13:50 | 52.40579 | 38.92627 | 34880 ft | 462 kts | 166° |
| 2026-05-05 13:50 | 52.37513 | 38.94223 | 35014 ft | 462 kts | 156° |
| 2026-05-05 13:51 | 52.34635 | 38.96633 | 35166 ft | 462 kts | 147° |
| 2026-05-05 13:51 | 52.31977 | 38.99690 | 35321 ft | 462 kts | 143° |
| 2026-05-05 13:51 | 52.29341 | 39.02801 | 35467 ft | 463 kts | 144° |
| 2026-05-05 13:51 | 52.26694 | 39.05856 | 35629 ft | 464 kts | 144° |
| 2026-05-05 13:52 | 52.24036 | 39.08951 | 35773 ft | 465 kts | 144° |
| 2026-05-05 13:52 | 52.21371 | 39.11992 | 35910 ft | 466 kts | 146° |
| 2026-05-05 13:52 | 52.18621 | 39.14875 | 36058 ft | 467 kts | 147° |
| 2026-05-05 13:52 | 52.15850 | 39.17825 | 36219 ft | 467 kts | 146° |
| 2026-05-05 13:53 | 52.13112 | 39.20732 | 36369 ft | 468 kts | 146° |
| 2026-05-05 13:53 | 52.10374 | 39.23624 | 36533 ft | 469 kts | 146° |
| 2026-05-05 13:53 | 52.07597 | 39.26571 | 36751 ft | 472 kts | 146° |
| 2026-05-05 13:53 | 52.04837 | 39.29489 | 36904 ft | 473 kts | 146° |
| 2026-05-05 13:54 | 51.99267 | 39.35375 | 36959 ft | 472 kts | 146° |
| 2026-05-05 13:54 | 51.93715 | 39.41219 | 36952 ft | 472 kts | 146° |
| 2026-05-05 13:55 | 51.88177 | 39.47035 | 36949 ft | 471 kts | 146° |
| 2026-05-05 13:55 | 51.82601 | 39.52871 | 36953 ft | 471 kts | 146° |
| 2026-05-05 13:56 | 51.77074 | 39.58635 | 36960 ft | 470 kts | 146° |
| 2026-05-05 13:56 | 51.71407 | 39.63977 | 36927 ft | 469 kts | 156° |
| 2026-05-05 13:57 | 51.65227 | 39.67168 | 36966 ft | 470 kts | 162° |
| 2026-05-05 13:57 | 51.59062 | 39.70424 | 36972 ft | 471 kts | 161° |
| 2026-05-05 13:58 | 51.52736 | 39.73809 | 36964 ft | 472 kts | 161° |
| 2026-05-05 13:58 | 51.46464 | 39.77176 | 36945 ft | 472 kts | 161° |
| 2026-05-05 13:59 | 51.37054 | 39.82230 | 36946 ft | 472 kts | 161° |
| 2026-05-05 14:00 | 51.28693 | 39.86702 | 36960 ft | 472 kts | 161° |
| 2026-05-05 14:00 | 51.21381 | 39.90602 | 36963 ft | 472 kts | 161° |
| 2026-05-05 14:01 | 51.15100 | 39.93942 | 36957 ft | 472 kts | 161° |
| 2026-05-05 14:01 | 51.08794 | 39.97297 | 36951 ft | 472 kts | 161° |
| 2026-05-05 14:02 | 51.02526 | 40.00603 | 36964 ft | 472 kts | 161° |
| 2026-05-05 14:02 | 50.96234 | 40.03920 | 36972 ft | 473 kts | 161° |
| 2026-05-05 14:03 | 50.89949 | 40.07217 | 36966 ft | 472 kts | 161° |
| 2026-05-05 14:03 | 50.83566 | 40.10567 | 36973 ft | 472 kts | 161° |
| 2026-05-05 14:04 | 50.77290 | 40.13840 | 36980 ft | 472 kts | 161° |
| 2026-05-05 14:04 | 50.70996 | 40.17117 | 36974 ft | 471 kts | 161° |
| 2026-05-05 14:05 | 50.64681 | 40.20401 | 36971 ft | 474 kts | 161° |
| 2026-05-05 14:05 | 50.58324 | 40.23693 | 36994 ft | 482 kts | 161° |
| 2026-05-05 14:06 | 50.51864 | 40.27029 | 36999 ft | 486 kts | 161° |
| 2026-05-05 14:06 | 50.45371 | 40.30372 | 36975 ft | 485 kts | 161° |
| 2026-05-05 14:07 | 50.38931 | 40.33678 | 36973 ft | 484 kts | 161° |
| 2026-05-05 14:07 | 50.32467 | 40.36991 | 36973 ft | 484 kts | 161° |
| 2026-05-05 14:08 | 50.28632 | 40.38953 | 36977 ft | 484 kts | 161° |
| 2026-05-05 14:08 | 50.22129 | 40.42268 | 36996 ft | 492 kts | 161° |
| 2026-05-05 14:09 | 50.15527 | 40.45618 | 36998 ft | 499 kts | 161° |
| 2026-05-05 14:09 | 50.09677 | 40.48590 | 36986 ft | 502 kts | 161° |
| 2026-05-05 14:10 | 50.03225 | 40.51849 | 36986 ft | 501 kts | 161° |
| 2026-05-05 14:10 | 49.96512 | 40.55219 | 36984 ft | 500 kts | 160° |
| 2026-05-05 14:11 | 49.89838 | 40.58561 | 36980 ft | 500 kts | 160° |
| 2026-05-05 14:11 | 49.83157 | 40.61899 | 36978 ft | 499 kts | 160° |
| 2026-05-05 14:12 | 49.76606 | 40.65157 | 36973 ft | 498 kts | 161° |
| 2026-05-05 14:12 | 49.69913 | 40.68482 | 36963 ft | 498 kts | 161° |
| 2026-05-05 14:13 | 49.63203 | 40.71409 | 36957 ft | 499 kts | 169° |
| 2026-05-05 14:13 | 49.56216 | 40.71614 | 36987 ft | 503 kts | 184° |
| 2026-05-05 14:14 | 49.49166 | 40.71099 | 36970 ft | 502 kts | 180° |
| 2026-05-05 14:14 | 49.42111 | 40.70742 | 36978 ft | 502 kts | 180° |
| 2026-05-05 14:15 | 49.35061 | 40.70432 | 36983 ft | 502 kts | 179° |
| 2026-05-05 14:15 | 49.27969 | 40.70266 | 36977 ft | 502 kts | 180° |
| 2026-05-05 14:16 | 49.20937 | 40.70088 | 37004 ft | 503 kts | 180° |
| 2026-05-05 14:16 | 49.13888 | 40.69904 | 36994 ft | 503 kts | 179° |
| 2026-05-05 14:17 | 49.06806 | 40.69716 | 36981 ft | 503 kts | 179° |
| 2026-05-05 14:17 | 48.99791 | 40.69536 | 36989 ft | 503 kts | 179° |
| 2026-05-05 14:18 | 48.92769 | 40.69354 | 37005 ft | 503 kts | 180° |
| 2026-05-05 14:18 | 48.85736 | 40.67722 | 37013 ft | 506 kts | 191° |
| 2026-05-05 14:19 | 48.78865 | 40.65625 | 37009 ft | 507 kts | 189° |
| 2026-05-05 14:19 | 48.72590 | 40.63763 | 37015 ft | 507 kts | 189° |
| 2026-05-05 14:20 | 48.66387 | 40.61942 | 37011 ft | 507 kts | 189° |
| 2026-05-05 14:20 | 48.59405 | 40.59917 | 37009 ft | 508 kts | 189° |
| 2026-05-05 14:21 | 48.52365 | 40.57880 | 37015 ft | 508 kts | 189° |
| 2026-05-05 14:21 | 48.45388 | 40.55866 | 37003 ft | 509 kts | 189° |
| 2026-05-05 14:22 | 48.38343 | 40.53865 | 37010 ft | 509 kts | 189° |
| 2026-05-05 14:22 | 48.31332 | 40.51869 | 37013 ft | 508 kts | 189° |
| 2026-05-05 14:23 | 48.24365 | 40.49900 | 37006 ft | 508 kts | 189° |
| 2026-05-05 14:23 | 48.17348 | 40.47917 | 37004 ft | 508 kts | 189° |
| 2026-05-05 14:24 | 48.10319 | 40.45940 | 36999 ft | 508 kts | 189° |
| 2026-05-05 14:24 | 48.03277 | 40.43964 | 37014 ft | 508 kts | 189° |
| 2026-05-05 14:25 | 47.96280 | 40.42001 | 37009 ft | 509 kts | 189° |
| 2026-05-05 14:25 | 47.89250 | 40.40039 | 37002 ft | 509 kts | 188° |
| 2026-05-05 14:26 | 47.82580 | 40.38182 | 37000 ft | 508 kts | 188° |
| 2026-05-05 14:26 | 47.75515 | 40.37671 | 36988 ft | 502 kts | 172° |
| 2026-05-05 14:27 | 47.68535 | 40.38746 | 37010 ft | 502 kts | 173° |
| 2026-05-05 14:27 | 47.61508 | 40.39592 | 37014 ft | 502 kts | 174° |
| 2026-05-05 14:28 | 47.54470 | 40.40374 | 37000 ft | 503 kts | 174° |
| 2026-05-05 14:28 | 47.47477 | 40.41125 | 36999 ft | 503 kts | 174° |
| 2026-05-05 14:29 | 47.40401 | 40.41884 | 36998 ft | 503 kts | 174° |
| 2026-05-05 14:29 | 47.33410 | 40.42623 | 36992 ft | 502 kts | 174° |
| 2026-05-05 14:30 | 47.26368 | 40.43367 | 37000 ft | 502 kts | 174° |
| 2026-05-05 14:30 | 47.19323 | 40.44107 | 37002 ft | 502 kts | 174° |
| 2026-05-05 14:31 | 47.12311 | 40.44840 | 36994 ft | 502 kts | 174° |
| 2026-05-05 14:31 | 47.05243 | 40.44979 | 37003 ft | 503 kts | 176° |
| 2026-05-05 14:32 | 46.98180 | 40.45140 | 36994 ft | 503 kts | 177° |
| 2026-05-05 14:32 | 46.91101 | 40.45296 | 36995 ft | 503 kts | 177° |
| 2026-05-05 14:33 | 46.84375 | 40.45439 | 36988 ft | 503 kts | 177° |
| 2026-05-05 14:33 | 46.78006 | 40.45583 | 36999 ft | 503 kts | 177° |
| 2026-05-05 14:34 | 46.70923 | 40.45734 | 36989 ft | 503 kts | 177° |
| 2026-05-05 14:34 | 46.63883 | 40.45880 | 36989 ft | 503 kts | 177° |
| 2026-05-05 14:35 | 46.56815 | 40.46036 | 36998 ft | 504 kts | 177° |
| 2026-05-05 14:35 | 46.49739 | 40.46188 | 36996 ft | 504 kts | 177° |
| 2026-05-05 14:36 | 46.42675 | 40.46337 | 36978 ft | 504 kts | 177° |
| 2026-05-05 14:36 | 46.35622 | 40.46436 | 36987 ft | 505 kts | 180° |
| 2026-05-05 14:37 | 46.28595 | 40.44553 | 36981 ft | 511 kts | 195° |
| 2026-05-05 14:37 | 46.21727 | 40.41629 | 37185 ft | 513 kts | 193° |
| 2026-05-05 14:38 | 46.14761 | 40.38893 | 37106 ft | 517 kts | 193° |
| 2026-05-05 14:38 | 46.07727 | 40.36203 | 37029 ft | 517 kts | 193° |
| 2026-05-05 14:39 | 46.00680 | 40.33533 | 37002 ft | 515 kts | 192° |
| 2026-05-05 14:39 | 45.93821 | 40.30956 | 36976 ft | 514 kts | 192° |
| 2026-05-05 14:40 | 45.86814 | 40.28330 | 36992 ft | 514 kts | 192° |
| 2026-05-05 14:40 | 45.80272 | 40.25885 | 36988 ft | 514 kts | 192° |
| 2026-05-05 14:41 | 45.73162 | 40.22520 | 36954 ft | 517 kts | 203° |
| 2026-05-05 14:41 | 45.66695 | 40.17791 | 36976 ft | 517 kts | 203° |
| 2026-05-05 14:42 | 45.60156 | 40.13188 | 36979 ft | 518 kts | 204° |
| 2026-05-05 14:42 | 45.53638 | 40.08667 | 36966 ft | 518 kts | 203° |
| 2026-05-05 14:43 | 45.47056 | 40.04115 | 36973 ft | 518 kts | 204° |
| 2026-05-05 14:43 | 45.40334 | 40.00467 | 36949 ft | 511 kts | 190° |
| 2026-05-05 14:44 | 45.33235 | 39.99441 | 36963 ft | 507 kts | 181° |
| 2026-05-05 14:44 | 45.26091 | 39.98485 | 36999 ft | 509 kts | 184° |
| 2026-05-05 14:45 | 45.18999 | 39.97385 | 36996 ft | 510 kts | 184° |
| 2026-05-05 14:45 | 45.11869 | 39.96235 | 36989 ft | 511 kts | 185° |
| 2026-05-05 14:46 | 45.05130 | 39.95130 | 36926 ft | 510 kts | 185° |
| 2026-05-05 14:46 | 44.98149 | 39.93978 | 36880 ft | 487 kts | 185° |
| 2026-05-05 14:47 | 44.94823 | 39.93431 | 36809 ft | 460 kts | 185° |
| 2026-05-05 14:47 | 44.91706 | 39.92908 | 36824 ft | 432 kts | 185° |
| 2026-05-05 14:47 | 44.88716 | 39.92417 | 36721 ft | 428 kts | 185° |
| 2026-05-05 14:47 | 44.85701 | 39.91929 | 36416 ft | 431 kts | 185° |
| 2026-05-05 14:48 | 44.82675 | 39.91424 | 35999 ft | 434 kts | 185° |
| 2026-05-05 14:48 | 44.79621 | 39.90921 | 35717 ft | 445 kts | 184° |
| 2026-05-05 14:48 | 44.76457 | 39.90404 | 35374 ft | 459 kts | 184° |
| 2026-05-05 14:48 | 44.73237 | 39.89880 | 35025 ft | 468 kts | 184° |
| 2026-05-05 14:49 | 44.69983 | 39.89347 | 34733 ft | 469 kts | 184° |
| 2026-05-05 14:49 | 44.66719 | 39.88814 | 34426 ft | 460 kts | 184° |
| 2026-05-05 14:49 | 44.63575 | 39.88300 | 34099 ft | 446 kts | 184° |
| 2026-05-05 14:49 | 44.60468 | 39.87795 | 33733 ft | 444 kts | 184° |
| 2026-05-05 14:50 | 44.57371 | 39.87293 | 33432 ft | 446 kts | 184° |
| 2026-05-05 14:50 | 44.54294 | 39.86785 | 33115 ft | 437 kts | 183° |
| 2026-05-05 14:50 | 44.51264 | 39.86292 | 32758 ft | 425 kts | 183° |
| 2026-05-05 14:50 | 44.48331 | 39.85813 | 32434 ft | 424 kts | 183° |
| 2026-05-05 14:51 | 44.45349 | 39.85331 | 32192 ft | 426 kts | 183° |
| 2026-05-05 14:51 | 44.42367 | 39.84857 | 31961 ft | 428 kts | 183° |
| 2026-05-05 14:51 | 44.39402 | 39.84398 | 31731 ft | 426 kts | 182° |
| 2026-05-05 14:51 | 44.36444 | 39.84217 | 31367 ft | 414 kts | 174° |
| 2026-05-05 14:52 | 44.33620 | 39.84751 | 30953 ft | 401 kts | 163° |
| 2026-05-05 14:52 | 44.30936 | 39.85927 | 30487 ft | 401 kts | 158° |
| 2026-05-05 14:52 | 44.28309 | 39.87148 | 29972 ft | 393 kts | 160° |
| 2026-05-05 14:52 | 44.25654 | 39.88270 | 29494 ft | 395 kts | 160° |
| 2026-05-05 14:53 | 44.23023 | 39.89391 | 28982 ft | 389 kts | 161° |
| 2026-05-05 14:53 | 44.20416 | 39.90464 | 28503 ft | 388 kts | 161° |
| 2026-05-05 14:53 | 44.17837 | 39.91513 | 28009 ft | 387 kts | 161° |
| 2026-05-05 14:53 | 44.15245 | 39.92561 | 27540 ft | 379 kts | 162° |
| 2026-05-05 14:54 | 44.12662 | 39.93597 | 27076 ft | 383 kts | 162° |
| 2026-05-05 14:54 | 44.10094 | 39.94625 | 26631 ft | 378 kts | 163° |
| 2026-05-05 14:54 | 44.07562 | 39.95625 | 26159 ft | 377 kts | 163° |
| 2026-05-05 14:54 | 44.05019 | 39.96636 | 25727 ft | 371 kts | 163° |
| 2026-05-05 14:55 | 44.02531 | 39.97611 | 25297 ft | 371 kts | 163° |
| 2026-05-05 14:55 | 44.00032 | 39.98601 | 24885 ft | 369 kts | 163° |
| 2026-05-05 14:55 | 43.97517 | 39.99592 | 24542 ft | 371 kts | 163° |
| 2026-05-05 14:55 | 43.95020 | 40.00568 | 24373 ft | 372 kts | 163° |
| 2026-05-05 14:56 | 43.92526 | 40.01559 | 24003 ft | 377 kts | 163° |
| 2026-05-05 14:56 | 43.89990 | 40.02557 | 23533 ft | 376 kts | 164° |
| 2026-05-05 14:56 | 43.87457 | 40.03557 | 23025 ft | 367 kts | 164° |
| 2026-05-05 14:56 | 43.85017 | 40.04512 | 22524 ft | 355 kts | 164° |
| 2026-05-05 14:57 | 43.82627 | 40.05442 | 22037 ft | 356 kts | 164° |
| 2026-05-05 14:57 | 43.80282 | 40.06358 | 21594 ft | 346 kts | 163° |
| 2026-05-05 14:57 | 43.77929 | 40.07277 | 21180 ft | 347 kts | 163° |
| 2026-05-05 14:57 | 43.75629 | 40.08177 | 20765 ft | 346 kts | 163° |
| 2026-05-05 14:58 | 43.73298 | 40.09095 | 20237 ft | 347 kts | 163° |
| 2026-05-05 14:58 | 43.70950 | 40.09970 | 19714 ft | 347 kts | 168° |
| 2026-05-05 14:58 | 43.68533 | 40.10303 | 19099 ft | 349 kts | 180° |
| 2026-05-05 14:58 | 43.66138 | 40.09920 | 18441 ft | 344 kts | 192° |
| 2026-05-05 14:59 | 43.63934 | 40.08874 | 17716 ft | 334 kts | 204° |
| 2026-05-05 14:59 | 43.61912 | 40.07248 | 16972 ft | 338 kts | 211° |
| 2026-05-05 14:59 | 43.59928 | 40.05528 | 16460 ft | 336 kts | 209° |
| 2026-05-05 14:59 | 43.57925 | 40.03915 | 16202 ft | 333 kts | 206° |
| 2026-05-05 15:00 | 43.55817 | 40.02577 | 16158 ft | 331 kts | 201° |
| 2026-05-05 15:00 | 43.54409 | 40.01737 | 16180 ft | 333 kts | 202° |
| 2026-05-05 15:00 | 43.51567 | 39.99980 | 16309 ft | 337 kts | 202° |
| 2026-05-05 15:00 | 43.49422 | 39.98662 | 16372 ft | 339 kts | 202° |
| 2026-05-05 15:01 | 43.47226 | 39.97306 | 16402 ft | 341 kts | 202° |
| 2026-05-05 15:01 | 43.45036 | 39.95981 | 16337 ft | 341 kts | 199° |
| 2026-05-05 15:01 | 43.42804 | 39.94949 | 15961 ft | 344 kts | 195° |
| 2026-05-05 15:01 | 43.40538 | 39.93951 | 15390 ft | 339 kts | 197° |
| 2026-05-05 15:02 | 43.38326 | 39.92945 | 14688 ft | 329 kts | 196° |
| 2026-05-05 15:02 | 43.36183 | 39.91983 | 13908 ft | 318 kts | 197° |
| 2026-05-05 15:02 | 43.34091 | 39.91040 | 13190 ft | 320 kts | 197° |
| 2026-05-05 15:02 | 43.31994 | 39.90092 | 12442 ft | 316 kts | 197° |
| 2026-05-05 15:03 | 43.29926 | 39.89153 | 11678 ft | 312 kts | 197° |
| 2026-05-05 15:03 | 43.27900 | 39.88238 | 10951 ft | 303 kts | 197° |
| 2026-05-05 15:03 | 43.25964 | 39.87365 | 10362 ft | 286 kts | 197° |
| 2026-05-05 15:03 | 43.24116 | 39.86528 | 9832 ft | 271 kts | 197° |
| 2026-05-05 15:04 | 43.22310 | 39.85710 | 9265 ft | 276 kts | 198° |
| 2026-05-05 15:04 | 43.20471 | 39.84879 | 8753 ft | 283 kts | 198° |
| 2026-05-05 15:04 | 43.18597 | 39.84032 | 8332 ft | 278 kts | 198° |
| 2026-05-05 15:04 | 43.16812 | 39.83226 | 8120 ft | 264 kts | 198° |
| 2026-05-05 15:05 | 43.13556 | 39.81752 | 8020 ft | 238 kts | 198° |
| 2026-05-05 15:05 | 43.11945 | 39.81023 | 8074 ft | 249 kts | 198° |
| 2026-05-05 15:05 | 43.10311 | 39.80281 | 8009 ft | 239 kts | 198° |
| 2026-05-05 15:06 | 43.08802 | 39.79597 | 7911 ft | 221 kts | 198° |
| 2026-05-05 15:06 | 43.07364 | 39.78946 | 7869 ft | 217 kts | 198° |
| 2026-05-05 15:06 | 43.05903 | 39.78282 | 7961 ft | 226 kts | 199° |
| 2026-05-05 15:06 | 43.04483 | 39.77329 | 8263 ft | 227 kts | 216° |
| 2026-05-05 15:07 | 43.03358 | 39.75807 | 8651 ft | 230 kts | 234° |
| 2026-05-05 15:07 | 43.02632 | 39.73863 | 9035 ft | 234 kts | 253° |
| 2026-05-05 15:07 | 43.02378 | 39.71672 | 9427 ft | 236 kts | 271° |
| 2026-05-05 15:07 | 43.02618 | 39.69442 | 9636 ft | 246 kts | 288° |
| 2026-05-05 15:08 | 43.03349 | 39.67268 | 9449 ft | 255 kts | 304° |
| 2026-05-05 15:08 | 43.04503 | 39.65449 | 9011 ft | 251 kts | 322° |
| 2026-05-05 15:08 | 43.05926 | 39.64224 | 8560 ft | 236 kts | 340° |
| 2026-05-05 15:08 | 43.07472 | 39.63689 | 8161 ft | 226 kts | 358° |
| 2026-05-05 15:09 | 43.09021 | 39.63858 | 7786 ft | 222 kts | 16° |
| 2026-05-05 15:09 | 43.10416 | 39.64697 | 7406 ft | 218 kts | 35° |
| 2026-05-05 15:09 | 43.11511 | 39.66102 | 7023 ft | 217 kts | 53° |
| 2026-05-05 15:09 | 43.12339 | 39.67814 | 6658 ft | 215 kts | 52° |
| 2026-05-05 15:10 | 43.13415 | 39.69187 | 6263 ft | 212 kts | 34° |
| 2026-05-05 15:10 | 43.14645 | 39.70317 | 5903 ft | 214 kts | 34° |
| 2026-05-05 15:10 | 43.15875 | 39.71493 | 5549 ft | 219 kts | 34° |
| 2026-05-05 15:10 | 43.17125 | 39.72685 | 5183 ft | 221 kts | 34° |
| 2026-05-05 15:11 | 43.18382 | 39.73885 | 4879 ft | 215 kts | 34° |
| 2026-05-05 15:11 | 43.19591 | 39.75041 | 4619 ft | 210 kts | 34° |
| 2026-05-05 15:11 | 43.20775 | 39.76176 | 4360 ft | 208 kts | 34° |
| 2026-05-05 15:11 | 43.21944 | 39.77298 | 4216 ft | 205 kts | 34° |
| 2026-05-05 15:12 | 43.23118 | 39.78418 | 4087 ft | 207 kts | 34° |
| 2026-05-05 15:12 | 43.24320 | 39.79565 | 3871 ft | 212 kts | 34° |
| 2026-05-05 15:12 | 43.25528 | 39.80723 | 3611 ft | 209 kts | 34° |
| 2026-05-05 15:12 | 43.26704 | 39.81840 | 3343 ft | 206 kts | 31° |
| 2026-05-05 15:13 | 43.27940 | 39.82791 | 3082 ft | 204 kts | 27° |
| 2026-05-05 15:13 | 43.29190 | 39.83742 | 2839 ft | 205 kts | 30° |
| 2026-05-05 15:13 | 43.30374 | 39.84718 | 2743 ft | 188 kts | 28° |
| 2026-05-05 15:13 | 43.31493 | 39.85561 | 2477 ft | 179 kts | 27° |
| 2026-05-05 15:14 | 43.32542 | 39.86351 | 2160 ft | 167 kts | 27° |
| 2026-05-05 15:14 | 43.33514 | 39.87081 | 2031 ft | 150 kts | 26° |
| 2026-05-05 15:14 | 43.34412 | 39.87751 | 1997 ft | 144 kts | 26° |
| 2026-05-05 15:14 | 43.35299 | 39.88411 | 1863 ft | 146 kts | 26° |
| 2026-05-05 15:15 | 43.36185 | 39.89064 | 1644 ft | 142 kts | 26° |
| 2026-05-05 15:15 | 43.37053 | 39.89704 | 1421 ft | 144 kts | 26° |
| 2026-05-05 15:15 | 43.37943 | 39.90363 | 1280 ft | 145 kts | 26° |
| 2026-05-05 15:15 | 43.38829 | 39.91029 | 1069 ft | 143 kts | 26° |
| 2026-05-05 15:16 | 43.39707 | 39.91685 | 859 ft | 143 kts | 26° |
| 2026-05-05 15:16 | 43.40585 | 39.92335 | 658 ft | 143 kts | 26° |
| 2026-05-05 15:16 | 43.41453 | 39.92996 | 475 ft | 143 kts | 27° |
| 2026-05-05 15:16 | 43.42330 | 39.93639 | 306 ft | 144 kts | 26° |
| 2026-05-05 15:17 | 43.43224 | 39.94310 | 111 ft | 145 kts | 26° |
| 2026-05-05 15:17 | 43.44073 | 39.94936 | 60 ft | 123 kts | 31° |
| 2026-05-05 15:17 | 43.44588 | 39.95331 | 69 ft | 49 kts | 28° |
| 2026-05-05 15:17 | 43.44700 | 39.95414 | 71 ft | 6 kts | 29° |
| 2026-05-05 15:18 | 43.44751 | 39.95454 | 72 ft | 10 kts | 29° |
| 2026-05-05 15:18 | 43.44835 | 39.95517 | 73 ft | 17 kts | 28° |
| 2026-05-05 15:18 | 43.44950 | 39.95580 | 74 ft | 16 kts | 342° |
| 2026-05-05 15:18 | 43.45041 | 39.95524 | 75 ft | 12 kts | 324° |
| 2026-05-05 15:19 | 43.45040 | 39.95410 | 76 ft | 15 kts | 245° |
| 2026-05-05 15:19 | 43.44987 | 39.95252 | 70 ft | 22 kts | 245° |
| 2026-05-05 15:19 | 43.44908 | 39.95021 | 58 ft | 28 kts | 240° |
| 2026-05-05 15:19 | 43.44826 | 39.94802 | 56 ft | 20 kts | 245° |
| 2026-05-05 15:20 | 43.44790 | 39.94682 | 55 ft | 6 kts | 275° |
| 2026-05-05 15:20 | 43.44818 | 39.94640 | 54 ft | 5 kts | 328° |
| 2026-05-05 15:20 | 43.44848 | 39.94614 | 54 ft | 5 kts | 326° |
| 2026-05-05 15:20 | 43.44873 | 39.94578 | 55 ft | 4 kts | 302° |
| 2026-05-05 15:21 | 43.44884 | 39.94548 | 56 ft | 1 kts | 297° |
| 2026-05-05 15:21 | 43.44887 | 39.94542 | 56 ft | 0 kts | 297° |
| 2026-05-05 15:21 | 43.44894 | 39.94524 | 57 ft | 3 kts | 297° |
| 2026-05-05 15:21 | 43.44895 | 39.94520 | 57 ft | 0 kts | 297° |